createdAt,value
2022-07-26T00:02:48.146Z,27.76
2022-07-26T00:07:50.384Z,27.75
2022-07-26T00:12:51.972Z,27.73
2022-07-26T00:17:53.790Z,27.68
2022-07-26T00:22:55.562Z,27.64
2022-07-26T00:27:57.289Z,27.58
2022-07-26T00:32:59.050Z,27.52
2022-07-26T00:38:00.776Z,27.45
2022-07-26T00:43:02.868Z,27.42
2022-07-26T00:48:05.002Z,27.39
2022-07-26T00:53:06.902Z,27.29
2022-07-26T00:58:08.618Z,27.28
2022-07-26T01:03:11.167Z,27.21
2022-07-26T01:08:12.863Z,27.17
2022-07-26T01:13:20.084Z,27.16
2022-07-26T01:18:21.740Z,27.13
2022-07-26T01:23:23.366Z,27.12
2022-07-26T01:28:25.048Z,27.08
2022-07-26T01:33:28.134Z,27.03
2022-07-26T01:38:29.992Z,26.99
2022-07-26T01:43:31.600Z,26.95
2022-07-26T01:48:33.702Z,26.92
2022-07-26T01:53:35.592Z,26.88
2022-07-26T01:58:37.376Z,26.85
2022-07-26T02:03:39.037Z,26.78
2022-07-26T02:08:40.716Z,26.74
2022-07-26T02:13:42.811Z,26.69
2022-07-26T02:18:44.816Z,26.65
2022-07-26T02:23:46.473Z,26.59
2022-07-26T02:28:48.258Z,26.55
2022-07-26T02:33:49.907Z,26.51
2022-07-26T02:38:51.618Z,26.44
2022-07-26T02:43:55.314Z,26.40
2022-07-26T02:48:57.088Z,26.37
2022-07-26T02:53:58.847Z,26.35
2022-07-26T02:59:00.479Z,26.30
2022-07-26T03:04:02.897Z,26.26
2022-07-26T03:09:04.804Z,26.21
2022-07-26T03:14:06.696Z,26.13
2022-07-26T03:19:08.461Z,26.09
2022-07-26T03:24:10.290Z,26.03
2022-07-26T03:29:12.203Z,25.96
2022-07-26T03:34:14.436Z,25.93
2022-07-26T03:39:16.188Z,25.90
2022-07-26T03:44:17.859Z,25.86
2022-07-26T03:49:19.686Z,25.84
2022-07-26T03:54:22.451Z,25.82
2022-07-26T03:59:25.572Z,25.80
2022-07-26T04:04:27.249Z,25.78
2022-07-26T04:09:29.034Z,25.74
2022-07-26T04:14:30.674Z,25.71
2022-07-26T04:19:32.291Z,25.71
2022-07-26T04:24:38.738Z,25.71
2022-07-26T04:29:40.395Z,25.70
2022-07-26T04:34:42.043Z,25.67
2022-07-26T04:39:43.770Z,25.66
2022-07-26T04:44:45.416Z,25.65
2022-07-26T04:49:47.111Z,25.62
2022-07-26T04:54:48.778Z,25.61
2022-07-26T05:00:03.361Z,25.60
2022-07-26T05:05:06.751Z,25.58
2022-07-26T05:10:10.165Z,25.58
2022-07-26T05:15:13.932Z,25.55
2022-07-26T05:20:16.895Z,25.48
2022-07-26T05:25:18.541Z,25.44
2022-07-26T05:30:20.310Z,25.42
2022-07-26T05:35:22.109Z,25.41
2022-07-26T05:40:23.830Z,25.45
2022-07-26T05:45:25.528Z,25.50
2022-07-26T05:50:27.267Z,25.52
2022-07-26T05:55:28.895Z,25.55
2022-07-26T06:00:30.925Z,25.47
2022-07-26T06:05:32.576Z,25.44
2022-07-26T06:10:34.163Z,25.42
2022-07-26T06:15:37.988Z,25.43
2022-07-26T06:20:41.751Z,25.45
2022-07-26T06:25:43.541Z,25.44
2022-07-26T06:30:45.562Z,25.42
2022-07-26T06:35:47.252Z,25.42
2022-07-26T06:40:49.037Z,25.36
2022-07-26T06:45:50.982Z,25.22
2022-07-26T06:50:52.754Z,25.19
2022-07-26T06:55:54.469Z,25.17
2022-07-26T07:00:56.249Z,25.19
2022-07-26T07:05:57.893Z,25.19
2022-07-26T07:10:59.545Z,25.24
2022-07-26T07:16:03.546Z,25.25
2022-07-26T07:21:05.753Z,25.22
2022-07-26T07:26:07.477Z,25.24
2022-07-26T07:31:09.164Z,25.27
2022-07-26T07:36:11.021Z,25.30
2022-07-26T07:41:12.703Z,25.37
2022-07-26T07:46:14.382Z,25.41
2022-07-26T07:51:16.173Z,25.42
2022-07-26T07:56:19.529Z,25.43
2022-07-26T08:01:23.538Z,25.51
2022-07-26T08:06:41.852Z,25.46
2022-07-26T08:11:52.175Z,25.63
2022-07-26T08:16:54.105Z,25.67
2022-07-26T08:21:55.820Z,25.72
2022-07-26T08:26:59.343Z,25.83
2022-07-26T08:32:01.622Z,25.85
2022-07-26T08:37:16.878Z,25.99
2022-07-26T08:42:24.943Z,26.11
2022-07-26T08:47:35.329Z,26.24
2022-07-26T08:52:43.044Z,26.42
2022-07-26T08:57:45.801Z,26.60
2022-07-26T09:02:48.717Z,26.64
2022-07-26T09:07:50.871Z,26.72
2022-07-26T09:12:58.462Z,26.78
2022-07-26T09:18:00.125Z,26.95
2022-07-26T09:23:07.809Z,26.97
2022-07-26T09:28:24.556Z,26.94
2022-07-26T09:33:26.721Z,26.98
2022-07-26T09:38:42.398Z,27.03
2022-07-26T09:43:44.039Z,27.16
2022-07-26T09:49:10.022Z,27.26
2022-07-26T09:54:09.694Z,27.41
2022-07-26T09:59:14.908Z,27.56
2022-07-26T10:04:17.125Z,27.67
2022-07-26T10:09:19.369Z,27.68
2022-07-26T10:14:33.078Z,27.76
2022-07-26T10:19:45.734Z,27.83
2022-07-26T10:24:51.119Z,27.93
2022-07-26T10:30:34.404Z,27.82
2022-07-26T10:35:41.442Z,27.80
2022-07-26T10:41:00.835Z,27.85
2022-07-26T10:46:18.644Z,27.79
2022-07-26T10:51:29.684Z,27.80
2022-07-26T10:56:33.712Z,27.78
2022-07-26T11:01:42.189Z,27.76
2022-07-26T11:06:45.627Z,27.90
2022-07-26T11:11:47.617Z,28.02
2022-07-26T11:16:50.554Z,28.15
2022-07-26T11:21:58.646Z,28.27
2022-07-26T11:27:03.873Z,28.36
2022-07-26T11:32:14.570Z,28.47
2022-07-26T11:37:18.869Z,28.58
2022-07-26T11:42:22.043Z,28.67
2022-07-26T11:47:26.134Z,28.77
2022-07-26T11:52:32.043Z,28.83
2022-07-26T11:57:34.111Z,28.73
2022-07-26T12:02:35.847Z,28.69
2022-07-26T12:07:37.506Z,28.45
2022-07-26T12:12:39.776Z,28.37
2022-07-26T12:17:58.684Z,28.31
2022-07-26T12:23:05.028Z,28.51
2022-07-26T12:28:07.690Z,28.46
2022-07-26T12:33:09.341Z,28.42
2022-07-26T12:38:11.071Z,28.51
2022-07-26T12:43:13.487Z,28.68
2022-07-26T12:48:15.961Z,28.89
2022-07-26T12:53:24.767Z,28.99
2022-07-26T12:58:26.734Z,29.06
2022-07-26T13:03:29.712Z,29.20
2022-07-26T13:08:31.504Z,29.30
2022-07-26T13:13:33.346Z,29.33
2022-07-26T13:18:34.955Z,29.36
2022-07-26T13:23:36.718Z,29.36
2022-07-26T13:28:40.792Z,29.34
2022-07-26T13:33:42.797Z,29.39
2022-07-26T13:38:44.867Z,29.45
2022-07-26T13:43:46.559Z,29.59
2022-07-26T13:49:00.589Z,29.66
2022-07-26T13:54:05.906Z,29.79
2022-07-26T13:59:07.795Z,29.85
2022-07-26T14:04:10.631Z,29.93
2022-07-26T14:09:13.012Z,29.98
2022-07-26T14:14:15.383Z,30.04
2022-07-26T14:19:17.908Z,30.05
2022-07-26T14:24:20.976Z,29.99
2022-07-26T14:29:22.803Z,29.89
2022-07-26T14:34:24.676Z,29.91
2022-07-26T14:39:27.037Z,29.93
2022-07-26T14:44:29.697Z,29.96
2022-07-26T14:49:31.637Z,30.10
2022-07-26T14:54:33.277Z,30.23
2022-07-26T14:59:34.971Z,30.21
2022-07-26T15:04:36.651Z,30.12
2022-07-26T15:09:38.597Z,30.10
2022-07-26T15:14:42.023Z,30.16
2022-07-26T15:19:43.713Z,30.24
2022-07-26T15:24:45.494Z,30.05
2022-07-26T15:29:48.619Z,30.15
2022-07-26T15:34:50.572Z,30.31
2022-07-26T15:39:52.773Z,30.36
2022-07-26T15:44:58.629Z,30.35
2022-07-26T15:50:00.311Z,30.37
2022-07-26T15:55:02.429Z,30.34
2022-07-26T16:00:11.507Z,30.46
2022-07-26T16:05:13.906Z,30.55
2022-07-26T16:10:16.471Z,30.41
2022-07-26T16:15:19.108Z,30.51
2022-07-26T16:20:20.919Z,30.63
2022-07-26T16:25:22.947Z,30.82
2022-07-26T16:30:25.035Z,30.88
2022-07-26T16:35:27.087Z,30.81
2022-07-26T16:40:28.812Z,30.84
2022-07-26T16:45:30.532Z,30.77
2022-07-26T16:50:34.643Z,30.81
2022-07-26T16:55:36.397Z,30.75
2022-07-26T17:00:38.158Z,30.86
2022-07-26T17:05:39.961Z,31.00
2022-07-26T17:10:42.139Z,31.05
2022-07-26T17:15:43.798Z,31.04
2022-07-26T17:20:48.946Z,31.10
2022-07-26T17:25:50.868Z,31.18
2022-07-26T17:30:52.847Z,31.22
2022-07-26T17:35:54.479Z,31.16
2022-07-26T17:40:59.006Z,31.06
2022-07-26T17:46:00.641Z,31.02
2022-07-26T17:51:02.250Z,30.94
2022-07-26T17:56:04.317Z,30.95
2022-07-26T18:01:06.778Z,31.03
2022-07-26T18:06:08.600Z,31.08
2022-07-26T18:11:10.424Z,30.93
2022-07-26T18:16:14.281Z,30.71
2022-07-26T18:21:16.112Z,30.48
2022-07-26T18:26:18.207Z,30.22
2022-07-26T18:31:20.000Z,30.02
2022-07-26T18:36:21.693Z,29.87
2022-07-26T18:41:23.419Z,29.70
2022-07-26T18:46:25.655Z,29.58
2022-07-26T18:51:27.478Z,29.45
2022-07-26T18:56:29.440Z,29.29
2022-07-26T19:01:31.136Z,29.16
2022-07-26T19:06:33.649Z,29.07
2022-07-26T19:11:37.562Z,28.93
2022-07-26T19:16:39.765Z,28.81
2022-07-26T19:21:46.357Z,28.69
2022-07-26T19:26:48.198Z,28.59
2022-07-26T19:31:49.825Z,28.47
2022-07-26T19:36:52.845Z,28.37
2022-07-26T19:41:54.879Z,28.26
2022-07-26T19:46:58.017Z,28.17
2022-07-26T19:51:59.946Z,28.07
2022-07-26T19:57:14.635Z,27.94
2022-07-26T20:02:31.565Z,27.82
2022-07-26T20:13:02.107Z,27.53
2022-07-26T20:18:04.891Z,27.37
2022-07-26T20:23:10.859Z,27.22
2022-07-26T20:28:12.472Z,27.05
2022-07-26T20:33:15.075Z,26.88
2022-07-26T20:38:18.433Z,26.76
2022-07-26T20:43:22.052Z,26.70
2022-07-26T20:48:24.085Z,26.59
2022-07-26T20:53:37.589Z,26.50
2022-07-26T20:58:39.209Z,26.36
2022-07-26T21:03:41.249Z,26.24
2022-07-26T21:08:43.128Z,26.16
2022-07-26T21:13:48.257Z,26.09
2022-07-26T21:18:52.930Z,26.02
2022-07-26T21:23:54.843Z,25.97
2022-07-26T21:28:56.540Z,25.91
2022-07-26T21:33:58.937Z,25.88
2022-07-26T21:39:00.681Z,25.79
2022-07-26T21:44:03.293Z,25.64
2022-07-26T21:49:05.200Z,25.52
2022-07-26T21:54:07.715Z,25.40
2022-07-26T21:59:09.971Z,25.25
2022-07-26T22:04:11.932Z,25.12
2022-07-26T22:09:14.199Z,25.09
2022-07-26T22:14:17.502Z,25.09
2022-07-26T22:19:20.007Z,25.04
2022-07-26T22:24:21.730Z,24.98
2022-07-26T22:29:23.502Z,24.91
2022-07-26T22:34:25.295Z,24.79
2022-07-26T22:39:26.991Z,24.74
2022-07-26T22:44:28.944Z,24.72
2022-07-26T22:49:30.541Z,24.60
2022-07-26T22:54:32.301Z,24.52
2022-07-26T22:59:33.998Z,24.50
2022-07-26T23:04:35.669Z,24.39
2022-07-26T23:09:37.388Z,24.36
2022-07-26T23:14:39.021Z,24.37
2022-07-26T23:19:40.864Z,24.41
2022-07-26T23:24:43.678Z,24.49
2022-07-26T23:29:45.450Z,24.53
2022-07-26T23:34:49.927Z,24.58
2022-07-26T23:39:51.599Z,24.59
2022-07-26T23:44:53.269Z,24.57
2022-07-26T23:49:54.974Z,24.59
2022-07-26T23:54:56.586Z,24.61
2022-07-26T23:59:58.159Z,24.61
